Bei Facebook empfehlenBei Twitter postenGoogle plusPinterest

Das Wetter im Erzgebirge am 27.11.2016

Wetter und Klima am 27.11.2016 Holzhau im Erzgebirge (630m ü.NN)
Letzte gemessene Temperatur und Uhrzeit der Messung23:45:00 Uhr-1.50 °C
Temperatur (Maximum / Höchstwert) und Uhrzeit der Messung13:45:00 Uhr1.60 °C
Temperatur (Minimum / Tiefstwert) und Uhrzeit der Messung23:45:00-1.50 °C
Errechneter Absolutwert der Temperaturschwankungen zwischen Tmin und Tmax des Tages3.10 K
Errechnete Tagesmitteltemperatur0.76458 °C
Gesamt - Niederschlag des Tages (in flüssiger Form)2.59 Liter / m²
Luftdruck (Maximum / Höchstwert) und Zeitpunkt der Messung23:15:00 Uhr1014.30 hPa
Luftdruck (Minimum / Tiefstwert) und Zeitpunkt der Messung05:15:00 Uhr1009.20 hPa
Errechneter Absolutwert der Luftdruckschwankungen des Tages5.10 hPa
Höchste gemessene Windgeschwindigkeit und Uhrzeit der Messung23:45:00 Uhr0.00 km/h
Errechnete Windhäufigkeit in Relation zu den Messwerten des Tages0.00000 %
Niedrigste Windkühle (Windchill) und Zeitpunkt der Messung23:45:00 Uhr-1.50 °C
Taupunkt (Maximum / Höchstwert) und Uhrzeit der Messung13:45:00 Uhr1.20 °C
Taupunkt (Minimum / Tiefstwert) und Uhrzeit der Messung23:45:00-2.40 °C
Anzahl der automatisch eingelesenen Messwerte 96

Detaillierte Wetter- und Klima- Messwerte für den 27.11.2016 in Holzhau im Erzgebirge (630m ü.NN)
ZeitTemperaturLuftdruckRel. LuftfeuchteWindWindrichtungWindchillTaupunktNiederschlag l/m²
23:45:00-1.50 °C1014.20 hPa94.00 %-2.40 °C2.59
23:30:00-1.40 °C1014.20 hPa94.00 %-2.30 °C2.59
23:15:00-1.20 °C1014.30 hPa94.00 %-2.10 °C2.59
23:00:00-1.10 °C1014.10 hPa94.00 %-2.00 °C2.59
22:45:00-0.90 °C1014.00 hPa94.00 %-1.80 °C2.59
22:30:00-0.70 °C1013.90 hPa94.00 %-1.60 °C2.59
22:15:00-0.70 °C1013.90 hPa95.00 %-1.50 °C2.59
22:00:00-0.60 °C1013.70 hPa95.00 %-1.40 °C2.59
21:45:00-0.40 °C1013.60 hPa95.00 %-1.20 °C2.59
21:30:00-0.40 °C1013.50 hPa95.00 %-1.20 °C2.59
21:15:00-0.20 °C1013.50 hPa95.00 %-1.00 °C2.59
21:00:00-0.20 °C1013.40 hPa95.00 %-1.00 °C2.59
20:45:00-0.20 °C1013.20 hPa95.00 %-1.00 °C2.59
20:30:00-0.10 °C1013.20 hPa95.00 %-0.90 °C2.59
20:15:00-0.10 °C1013.20 hPa95.00 %-0.90 °C2.59
20:00:000.10 °C1012.90 hPa95.00 %-0.60 °C2.59
19:45:000.20 °C1013.00 hPa95.00 %-0.50 °C2.59
19:30:000.30 °C1012.80 hPa96.00 %-0.30 °C2.59
19:15:000.30 °C1012.70 hPa96.00 %-0.30 °C2.59
19:00:000.30 °C1012.70 hPa96.00 %-0.30 °C2.59
18:45:000.30 °C1012.50 hPa96.00 %-0.30 °C2.59
18:30:000.40 °C1012.50 hPa96.00 %-0.20 °C2.59
18:15:000.40 °C1012.30 hPa96.00 %-0.20 °C2.59
18:00:000.50 °C1012.30 hPa96.00 %-0.10 °C2.59
17:45:000.60 °C1011.90 hPa96.00 %0.00 °C2.59
17:30:000.60 °C1011.60 hPa96.00 %0.00 °C2.59
17:15:000.60 °C1011.50 hPa96.00 %0.00 °C2.59
17:00:000.60 °C1011.50 hPa96.00 %0.00 °C2.59
16:45:000.60 °C1011.50 hPa96.00 %0.00 °C2.59
16:30:000.70 °C1011.30 hPa96.00 %0.10 °C2.59
16:15:000.80 °C1011.00 hPa96.00 %0.20 °C2.59
16:00:000.80 °C1011.10 hPa96.00 %0.20 °C2.59
15:45:000.90 °C1010.90 hPa96.00 %0.30 °C2.59
15:30:000.90 °C1011.00 hPa96.00 %0.30 °C2.59
15:15:001.00 °C1010.90 hPa96.00 %0.40 °C2.59
15:00:001.10 °C1011.10 hPa96.00 %0.50 °C2.59
14:45:001.10 °C1010.70 hPa96.00 %0.50 °C2.59
14:30:001.30 °C1010.80 hPa96.00 %0.70 °C2.59
14:15:001.30 °C1010.80 hPa97.00 %0.90 °C2.59
14:00:001.40 °C1010.80 hPa97.00 %1.00 °C2.59
13:45:001.60 °C1010.50 hPa97.00 %1.20 °C2.59
13:30:001.50 °C1010.50 hPa97.00 %1.10 °C2.59
13:15:001.40 °C1010.60 hPa97.00 %1.00 °C2.59
13:00:001.30 °C1010.60 hPa97.00 %0.90 °C2.59
12:45:001.10 °C1010.60 hPa96.00 %0.50 °C2.59
12:30:001.20 °C1010.60 hPa96.00 %0.60 °C2.59
12:15:001.10 °C1010.50 hPa97.00 %0.70 °C2.59
12:00:001.20 °C1010.40 hPa97.00 %0.80 °C2.59
11:45:001.10 °C1010.40 hPa97.00 %0.70 °C2.59
11:30:001.20 °C1010.40 hPa97.00 %0.80 °C2.59
11:15:001.30 °C1010.40 hPa97.00 %0.90 °C2.59
11:00:001.20 °C1010.60 hPa97.00 %0.80 °C2.08
10:45:000.70 °C1010.50 hPa97.00 %0.30 °C2.08
10:30:000.80 °C1010.40 hPa97.00 %0.40 °C2.08
10:15:001.00 °C1010.20 hPa97.00 %0.60 °C2.08
10:00:001.10 °C1010.20 hPa97.00 %0.70 °C2.08
09:45:001.00 °C1010.40 hPa97.00 %0.60 °C2.08
09:30:001.10 °C1010.20 hPa97.00 %0.70 °C2.08
09:15:001.00 °C1010.40 hPa97.00 %0.60 °C2.08
09:00:001.00 °C1009.70 hPa97.00 %0.60 °C2.08
08:45:000.90 °C1009.90 hPa97.00 %0.50 °C2.08
08:30:001.00 °C1009.80 hPa97.00 %0.60 °C2.08
08:15:001.10 °C1009.80 hPa96.00 %0.50 °C1.56
08:00:001.10 °C1009.60 hPa96.00 %0.50 °C1.56
07:45:001.10 °C1009.40 hPa96.00 %0.50 °C1.04
07:30:001.00 °C1009.30 hPa96.00 %0.40 °C1.04
07:15:000.90 °C1009.30 hPa96.00 %0.30 °C1.04
07:00:000.90 °C1009.50 hPa96.00 %0.30 °C1.04
06:45:000.90 °C1009.60 hPa96.00 %0.30 °C1.04
06:30:000.90 °C1009.60 hPa96.00 %0.30 °C1.04
06:15:001.00 °C1009.50 hPa96.00 %0.40 °C1.04
06:00:001.10 °C1009.60 hPa96.00 %0.50 °C1.04
05:45:001.20 °C1009.50 hPa96.00 %0.60 °C0.52
05:30:001.30 °C1009.40 hPa97.00 %0.90 °C0.52
05:15:001.30 °C1009.20 hPa97.00 %0.90 °C0.52
05:00:001.30 °C1009.20 hPa97.00 %0.90 °C0.52
04:45:001.30 °C1009.40 hPa97.00 %0.90 °C 
04:30:001.20 °C1009.60 hPa96.00 %0.60 °C 
04:15:001.30 °C1009.50 hPa96.00 %0.70 °C 
04:00:001.30 °C1009.60 hPa97.00 %0.90 °C 
03:45:001.30 °C1009.70 hPa97.00 %0.90 °C 
03:30:001.30 °C1009.80 hPa97.00 %0.90 °C 
03:15:001.40 °C1009.90 hPa97.00 %1.00 °C 
03:00:001.50 °C1010.00 hPa97.00 %1.10 °C 
02:45:001.40 °C1010.00 hPa97.00 %1.00 °C 
02:30:001.50 °C1009.80 hPa96.00 %0.90 °C 
02:15:001.60 °C1009.90 hPa96.00 %1.00 °C 
02:00:001.60 °C1009.90 hPa96.00 %1.00 °C 
01:45:001.50 °C1010.10 hPa96.00 %0.90 °C 
01:30:001.50 °C1010.20 hPa96.00 %0.90 °C 
01:15:001.30 °C1010.20 hPa96.00 %0.70 °C 
01:00:001.30 °C1010.30 hPa96.00 %0.70 °C 
00:45:001.20 °C1010.30 hPa96.00 %0.60 °C 
00:30:001.20 °C1010.50 hPa96.00 %0.60 °C 
00:15:000.90 °C1010.50 hPa96.00 %0.30 °C 
00:00:000.50 °C1010.70 hPa96.00 %-0.10 °C 

Permanenter Link zu dieser Seite: Wetter im Erzgebirge am 27.11.2016
Performance-Info: Die Erstellung der Seite / Statistik(en) / Tabelle(n) erforderte 5 Datenbankserver-Abfrage(n) und dauerte 69 Millisekunden. (Dieser Messwert ist von der Gesamt-Auslastung des Servers abhängig.)
Erzgebirge - Wetter | Erzgebirge - Wetter (Mobilgeräte) | Komplette Klimadatenbank